createdAt,value
2022-10-09T00:01:32.231Z,11.69
2022-10-09T00:03:59.710Z,11.61
2022-10-09T00:06:32.934Z,11.36
2022-10-09T00:09:01.968Z,11.40
2022-10-09T00:11:30.016Z,11.09
2022-10-09T00:13:57.144Z,10.87
2022-10-09T00:16:25.342Z,11.14
2022-10-09T00:18:53.280Z,11.03
2022-10-09T00:21:24.913Z,11.47
2022-10-09T00:23:53.867Z,11.14
2022-10-09T00:26:21.207Z,11.43
2022-10-09T00:28:47.873Z,11.26
2022-10-09T00:31:15.432Z,11.10
2022-10-09T00:33:42.629Z,10.92
2022-10-09T00:36:12.265Z,11.08
2022-10-09T00:38:39.213Z,11.43
2022-10-09T00:41:06.527Z,11.18
2022-10-09T00:43:43.403Z,11.09
2022-10-09T00:46:36.903Z,10.45
2022-10-09T00:49:20.783Z,10.75
2022-10-09T00:51:50.193Z,11.28
2022-10-09T00:54:20.305Z,10.85
2022-10-09T00:56:47.935Z,11.21
2022-10-09T00:59:15.206Z,11.22
2022-10-09T01:01:42.232Z,11.00
2022-10-09T01:04:09.483Z,11.31
2022-10-09T01:07:17.354Z,10.86
2022-10-09T01:10:12.624Z,11.27
2022-10-09T01:12:54.798Z,10.97
2022-10-09T01:15:30.590Z,10.92
2022-10-09T01:18:12.771Z,10.81
2022-10-09T01:20:49.268Z,10.70
2022-10-09T01:23:32.261Z,10.83
2022-10-09T01:26:11.753Z,11.03
2022-10-09T01:28:42.134Z,10.34
2022-10-09T01:31:10.777Z,10.27
2022-10-09T01:33:38.093Z,10.70
2022-10-09T01:36:06.807Z,10.45
2022-10-09T01:38:34.705Z,10.14
2022-10-09T01:41:04.314Z,10.56
2022-10-09T01:43:30.797Z,10.59
2022-10-09T01:46:23.532Z,10.46
2022-10-09T01:49:12.645Z,10.78
2022-10-09T01:51:57.081Z,10.44
2022-10-09T01:55:05.555Z,10.16
2022-10-09T01:58:29.478Z,10.56
2022-10-09T02:01:10.872Z,10.29
2022-10-09T02:03:40.720Z,10.79
2022-10-09T02:06:11.009Z,10.50
2022-10-09T02:08:39.257Z,10.65
2022-10-09T02:11:06.653Z,10.66
2022-10-09T02:13:35.537Z,10.80
2022-10-09T02:16:13.935Z,10.91
2022-10-09T02:18:43.593Z,10.69
2022-10-09T02:21:15.604Z,10.39
2022-10-09T02:23:45.025Z,10.35
2022-10-09T02:26:12.905Z,10.69
2022-10-09T02:28:45.084Z,10.48
2022-10-09T02:31:20.072Z,10.28
2022-10-09T02:33:46.919Z,10.78
2022-10-09T02:36:14.297Z,10.39
2022-10-09T02:38:40.801Z,10.25
2022-10-09T02:41:07.298Z,10.32
2022-10-09T02:43:33.816Z,10.49
2022-10-09T02:46:00.401Z,10.61
2022-10-09T02:48:27.001Z,10.69
2022-10-09T02:50:53.538Z,10.46
2022-10-09T02:53:20.095Z,10.76
2022-10-09T02:55:46.669Z,10.37
2022-10-09T02:58:13.230Z,10.07
2022-10-09T03:00:39.766Z,10.22
2022-10-09T03:03:06.298Z,10.28
2022-10-09T03:05:32.879Z,10.36
2022-10-09T03:07:59.582Z,10.45
2022-10-09T03:10:26.348Z,9.79
2022-10-09T03:12:52.955Z,10.16
2022-10-09T03:15:19.521Z,10.19
2022-10-09T03:17:46.082Z,10.02
2022-10-09T03:20:12.676Z,10.22
2022-10-09T03:22:39.256Z,9.98
2022-10-09T03:25:06.404Z,10.31
2022-10-09T03:27:33.544Z,9.77
2022-10-09T03:30:00.080Z,9.94
2022-10-09T03:32:26.786Z,9.80
2022-10-09T03:34:53.392Z,10.24
2022-10-09T03:37:19.963Z,10.34
2022-10-09T03:39:46.550Z,10.21
2022-10-09T03:42:13.250Z,10.34
2022-10-09T03:44:39.816Z,10.31
2022-10-09T03:47:06.799Z,10.07
2022-10-09T03:49:33.339Z,10.17
2022-10-09T03:52:00.132Z,9.84
2022-10-09T03:54:26.762Z,10.10
2022-10-09T03:56:53.359Z,10.07
2022-10-09T03:59:19.948Z,10.07
2022-10-09T04:01:46.512Z,10.06
2022-10-09T04:04:13.038Z,9.86
2022-10-09T04:06:39.584Z,10.08
2022-10-09T04:09:06.111Z,10.38
2022-10-09T04:11:32.823Z,10.34
2022-10-09T04:14:00.205Z,10.00
2022-10-09T04:16:26.806Z,10.39
2022-10-09T04:18:53.374Z,10.29
2022-10-09T04:21:19.977Z,10.45
2022-10-09T04:23:46.491Z,10.40
2022-10-09T04:26:13.666Z,10.48
2022-10-09T04:28:40.381Z,10.42
2022-10-09T04:31:07.016Z,10.00
2022-10-09T04:33:33.817Z,10.36
2022-10-09T04:36:00.399Z,10.02
2022-10-09T04:38:26.949Z,10.44
2022-10-09T04:41:04.376Z,10.33
2022-10-09T04:43:31.165Z,10.35
2022-10-09T04:45:57.905Z,10.50
2022-10-09T04:48:24.988Z,10.54
2022-10-09T04:50:51.517Z,10.34
2022-10-09T04:53:18.043Z,10.30
2022-10-09T04:55:45.122Z,10.30
2022-10-09T04:58:12.873Z,10.33
2022-10-09T05:00:41.579Z,10.16
2022-10-09T05:03:08.364Z,10.24
2022-10-09T05:05:34.926Z,10.07
2022-10-09T05:08:01.433Z,10.33
2022-10-09T05:10:28.105Z,10.09
2022-10-09T05:12:54.626Z,9.76
2022-10-09T05:15:21.166Z,10.21
2022-10-09T05:17:47.699Z,10.21
2022-10-09T05:20:16.804Z,10.09
2022-10-09T05:22:47.483Z,10.15
2022-10-09T05:25:14.940Z,10.10
2022-10-09T05:27:41.601Z,10.36
2022-10-09T05:30:08.924Z,10.34
2022-10-09T05:32:35.856Z,10.31
2022-10-09T05:35:02.903Z,10.20
2022-10-09T05:37:29.482Z,10.16
2022-10-09T05:39:55.958Z,10.13
2022-10-09T05:42:22.519Z,10.12
2022-10-09T05:44:49.043Z,10.20
2022-10-09T05:47:17.870Z,9.98
2022-10-09T05:49:44.374Z,10.12
2022-10-09T05:52:10.908Z,10.06
2022-10-09T05:54:37.466Z,9.99
2022-10-09T05:57:04.933Z,9.87
2022-10-09T05:59:31.487Z,10.11
2022-10-09T06:02:01.936Z,9.93
2022-10-09T06:04:28.530Z,9.95
2022-10-09T06:06:55.277Z,9.86
2022-10-09T06:09:24.016Z,9.86
2022-10-09T06:11:51.454Z,10.10
2022-10-09T06:14:18.520Z,10.03
2022-10-09T06:16:45.519Z,10.04
2022-10-09T06:19:14.889Z,9.84
2022-10-09T06:21:42.624Z,9.82
2022-10-09T06:24:17.621Z,9.79
2022-10-09T06:26:44.185Z,9.72
2022-10-09T06:29:10.691Z,9.80
2022-10-09T06:31:37.917Z,9.92
2022-10-09T06:34:04.772Z,9.70
2022-10-09T06:36:34.498Z,9.38
2022-10-09T06:39:03.513Z,9.39
2022-10-09T06:41:30.831Z,9.55
2022-10-09T06:44:02.429Z,9.87
2022-10-09T06:46:30.434Z,9.95
2022-10-09T06:48:59.648Z,9.90
2022-10-09T06:51:28.085Z,9.98
2022-10-09T06:53:56.799Z,10.16
2022-10-09T06:56:24.554Z,10.14
2022-10-09T06:58:51.596Z,10.02
2022-10-09T07:01:32.026Z,9.75
2022-10-09T07:04:02.976Z,9.92
2022-10-09T07:06:31.455Z,10.06
2022-10-09T07:09:00.362Z,10.26
2022-10-09T07:11:29.484Z,10.15
2022-10-09T07:13:58.246Z,9.71
2022-10-09T07:16:31.075Z,9.93
2022-10-09T07:18:59.975Z,9.85
2022-10-09T07:21:26.759Z,9.44
2022-10-09T07:23:56.043Z,9.63
2022-10-09T07:26:27.396Z,9.51
2022-10-09T07:28:54.415Z,9.41
2022-10-09T07:31:22.859Z,9.68
2022-10-09T07:33:50.744Z,9.52
2022-10-09T07:36:17.670Z,9.35
2022-10-09T07:38:44.872Z,9.44
2022-10-09T07:41:12.816Z,9.68
2022-10-09T07:43:41.002Z,9.41
2022-10-09T07:46:11.448Z,9.67
2022-10-09T07:48:38.591Z,9.87
2022-10-09T07:51:10.517Z,10.04
2022-10-09T07:53:37.806Z,10.07
2022-10-09T07:56:05.330Z,10.31
2022-10-09T07:58:32.002Z,10.16
2022-10-09T08:01:08.423Z,10.39
2022-10-09T08:03:36.215Z,10.06
2022-10-09T08:06:03.050Z,10.30
2022-10-09T08:08:29.716Z,10.22
2022-10-09T08:10:56.284Z,10.54
2022-10-09T08:13:22.806Z,10.47
2022-10-09T08:15:49.374Z,10.32
2022-10-09T08:18:15.953Z,10.50
2022-10-09T08:20:42.518Z,10.29
2022-10-09T08:23:09.684Z,10.47
2022-10-09T08:25:37.008Z,10.59
2022-10-09T08:28:04.861Z,10.67
2022-10-09T08:30:31.486Z,10.67
2022-10-09T08:32:58.021Z,10.64
2022-10-09T08:35:24.620Z,10.95
2022-10-09T08:37:51.243Z,10.88
2022-10-09T08:40:33.789Z,10.98
2022-10-09T08:43:04.598Z,10.87
2022-10-09T08:45:32.983Z,11.13
2022-10-09T08:48:04.049Z,11.31
2022-10-09T08:50:34.791Z,11.12
2022-10-09T08:53:39.955Z,11.22
2022-10-09T08:56:13.382Z,11.40
2022-10-09T08:58:42.751Z,11.68
2022-10-09T09:01:35.348Z,11.61
2022-10-09T09:04:17.171Z,11.77
2022-10-09T09:07:05.967Z,11.81
2022-10-09T09:09:52.116Z,11.60
2022-10-09T09:12:34.123Z,11.88
2022-10-09T09:15:37.510Z,11.86
2022-10-09T09:18:25.827Z,12.18
2022-10-09T09:20:55.064Z,12.12
2022-10-09T09:23:28.744Z,12.04
2022-10-09T09:25:56.222Z,11.92
2022-10-09T09:28:26.275Z,12.27
2022-10-09T09:30:58.478Z,12.27
2022-10-09T09:33:51.413Z,12.18
2022-10-09T09:36:26.606Z,12.41
2022-10-09T09:39:44.306Z,12.66
2022-10-09T09:41:41.856Z,12.68
2022-10-09T09:44:11.916Z,12.82
2022-10-09T09:46:39.185Z,12.81
2022-10-09T09:49:20.175Z,12.67
2022-10-09T09:51:49.158Z,12.75
2022-10-09T09:54:22.609Z,12.81
2022-10-09T09:57:12.032Z,12.81
2022-10-09T09:59:42.987Z,12.82
2022-10-09T10:02:14.319Z,12.77
2022-10-09T10:04:52.591Z,12.72
2022-10-09T10:07:36.870Z,12.96
2022-10-09T10:10:12.932Z,13.41
2022-10-09T10:12:41.219Z,13.35
2022-10-09T10:15:26.666Z,13.40
2022-10-09T10:18:17.360Z,13.21
2022-10-09T10:20:51.055Z,13.33
2022-10-09T10:23:31.234Z,13.55
2022-10-09T10:26:00.641Z,13.48
2022-10-09T10:28:35.534Z,13.74
2022-10-09T10:31:06.816Z,13.59
2022-10-09T10:33:35.793Z,13.73
2022-10-09T10:36:02.351Z,13.73
2022-10-09T10:38:35.279Z,13.72
2022-10-09T10:41:15.742Z,13.84
2022-10-09T10:43:45.678Z,13.70
2022-10-09T10:46:23.876Z,13.97
2022-10-09T10:48:51.636Z,13.98
2022-10-09T10:51:24.209Z,13.97
2022-10-09T10:54:22.122Z,14.23
2022-10-09T10:57:13.143Z,14.04
2022-10-09T10:59:50.142Z,14.65
2022-10-09T11:03:00.887Z,14.43
2022-10-09T11:05:51.419Z,14.55
2022-10-09T11:08:45.126Z,14.41
2022-10-09T11:11:33.630Z,14.35
2022-10-09T11:14:26.081Z,14.40
2022-10-09T11:16:56.424Z,14.79
2022-10-09T11:19:32.822Z,14.73
2022-10-09T11:22:05.573Z,14.80
2022-10-09T11:25:00.400Z,14.94
2022-10-09T11:27:58.214Z,15.01
2022-10-09T11:30:28.514Z,14.91
2022-10-09T11:33:10.222Z,14.97
2022-10-09T11:35:48.414Z,14.91
2022-10-09T11:38:37.688Z,14.84
2022-10-09T11:41:07.312Z,15.07
2022-10-09T11:43:52.326Z,15.28
2022-10-09T11:46:36.741Z,15.51
2022-10-09T11:49:31.140Z,15.44
2022-10-09T11:52:10.994Z,15.27
2022-10-09T11:54:37.542Z,15.57
2022-10-09T11:57:06.386Z,15.12
2022-10-09T11:59:42.244Z,15.32
2022-10-09T12:02:24.288Z,15.39
2022-10-09T12:04:54.762Z,15.32
2022-10-09T12:10:23.466Z,15.34
2022-10-09T12:12:58.372Z,15.57
2022-10-09T12:15:39.045Z,15.43
2022-10-09T12:18:20.904Z,15.17
2022-10-09T12:20:49.831Z,15.63
2022-10-09T12:23:26.727Z,15.39
2022-10-09T12:25:55.472Z,15.55
2022-10-09T12:28:28.121Z,15.29
2022-10-09T12:30:56.591Z,15.44
2022-10-09T12:33:33.634Z,15.35
2022-10-09T12:36:03.659Z,15.60
2022-10-09T12:38:34.318Z,15.59
2022-10-09T12:41:04.786Z,16.03
2022-10-09T12:43:32.634Z,16.04
2022-10-09T12:46:00.226Z,16.12
2022-10-09T12:48:29.103Z,15.87
2022-10-09T12:50:55.948Z,15.59
2022-10-09T12:53:27.917Z,16.07
2022-10-09T12:56:00.609Z,16.32
2022-10-09T12:58:31.588Z,16.15
2022-10-09T13:01:01.044Z,16.22
2022-10-09T13:03:38.387Z,16.26
2022-10-09T13:06:14.871Z,16.02
2022-10-09T13:08:41.893Z,16.04
2022-10-09T13:11:29.335Z,15.82
2022-10-09T13:13:56.337Z,16.08
2022-10-09T13:16:24.227Z,16.07
2022-10-09T13:18:59.416Z,16.11
2022-10-09T13:21:34.346Z,16.26
2022-10-09T13:24:10.147Z,16.10
2022-10-09T13:26:38.927Z,16.52
2022-10-09T13:29:07.448Z,16.36
2022-10-09T13:31:36.505Z,16.50
2022-10-09T13:34:13.465Z,16.40
2022-10-09T13:36:40.261Z,16.64
2022-10-09T13:39:07.151Z,16.58
2022-10-09T13:41:33.977Z,16.57
2022-10-09T13:44:00.614Z,16.10
2022-10-09T13:46:27.201Z,16.05
2022-10-09T13:48:53.864Z,16.31
2022-10-09T13:51:20.576Z,16.39
2022-10-09T13:53:47.118Z,16.32
2022-10-09T13:56:13.638Z,16.23
2022-10-09T13:58:40.216Z,16.12
2022-10-09T14:01:09.200Z,16.47
2022-10-09T14:03:35.896Z,16.21
2022-10-09T14:06:03.818Z,16.16
2022-10-09T14:08:30.879Z,16.32
2022-10-09T14:11:00.578Z,16.44
2022-10-09T14:13:28.541Z,16.29
2022-10-09T14:15:55.375Z,16.19
2022-10-09T14:18:22.210Z,16.24
2022-10-09T14:20:48.781Z,16.24
2022-10-09T14:23:15.373Z,16.64
2022-10-09T14:25:42.073Z,16.41
2022-10-09T14:28:08.675Z,16.54
2022-10-09T14:30:40.027Z,16.57
2022-10-09T14:33:06.357Z,16.43
2022-10-09T14:35:32.880Z,16.53
2022-10-09T14:37:59.444Z,16.56
2022-10-09T14:40:26.071Z,17.53
2022-10-09T14:42:52.754Z,17.57
2022-10-09T14:45:19.406Z,17.35
2022-10-09T14:47:45.915Z,17.57
2022-10-09T14:50:12.478Z,17.50
2022-10-09T14:52:39.011Z,16.95
2022-10-09T14:55:05.860Z,17.61
2022-10-09T14:57:35.410Z,17.88
2022-10-09T15:00:04.160Z,17.77
2022-10-09T15:02:30.875Z,18.17
2022-10-09T15:04:57.494Z,18.16
2022-10-09T15:07:24.474Z,18.44
2022-10-09T15:09:51.003Z,18.09
2022-10-09T15:12:17.496Z,18.21
2022-10-09T15:14:44.007Z,17.89
2022-10-09T15:17:10.534Z,18.12
2022-10-09T15:19:37.718Z,17.64
2022-10-09T15:22:04.798Z,17.27
2022-10-09T15:24:31.426Z,17.37
2022-10-09T15:26:58.023Z,17.41
2022-10-09T15:29:24.533Z,17.33
2022-10-09T15:31:51.718Z,17.42
2022-10-09T15:34:19.553Z,18.27
2022-10-09T15:36:46.645Z,17.88
2022-10-09T15:39:13.511Z,18.41
2022-10-09T15:41:41.921Z,17.95
2022-10-09T15:44:17.414Z,17.77
2022-10-09T15:46:45.097Z,18.15
2022-10-09T15:49:11.786Z,18.00
2022-10-09T15:51:38.514Z,17.61
2022-10-09T15:54:06.142Z,17.25
2022-10-09T15:56:38.793Z,17.50
2022-10-09T15:59:06.734Z,17.65
2022-10-09T16:01:33.266Z,17.62
2022-10-09T16:03:59.853Z,17.90
2022-10-09T16:06:26.398Z,17.55
2022-10-09T16:08:58.408Z,17.62
2022-10-09T16:11:26.814Z,17.50
2022-10-09T16:13:54.641Z,17.53
2022-10-09T16:16:23.637Z,17.50
2022-10-09T16:18:50.897Z,17.44
2022-10-09T16:21:22.681Z,17.24
2022-10-09T16:23:52.253Z,17.12
2022-10-09T16:26:22.069Z,17.38
2022-10-09T16:28:49.198Z,17.37
2022-10-09T16:31:21.013Z,17.20
2022-10-09T16:33:47.785Z,17.22
2022-10-09T16:36:15.098Z,17.12
2022-10-09T16:38:41.952Z,17.09
2022-10-09T16:41:12.909Z,17.09
2022-10-09T16:43:39.607Z,17.05
2022-10-09T16:46:15.541Z,16.77
2022-10-09T16:48:42.107Z,16.78
2022-10-09T16:51:14.437Z,16.69
2022-10-09T16:53:42.055Z,16.64
2022-10-09T16:56:16.517Z,16.46
2022-10-09T16:58:43.993Z,16.39
2022-10-09T17:01:11.882Z,16.32
2022-10-09T17:03:42.943Z,16.32
2022-10-09T17:06:11.805Z,16.21
2022-10-09T17:08:39.022Z,15.91
2022-10-09T17:11:07.839Z,16.32
2022-10-09T17:13:34.524Z,16.41
2022-10-09T17:16:03.729Z,16.17
2022-10-09T17:18:30.280Z,16.49
2022-10-09T17:20:57.235Z,16.53
2022-10-09T17:23:24.207Z,16.55
2022-10-09T17:25:50.862Z,16.51
2022-10-09T17:28:17.404Z,16.36
2022-10-09T17:30:44.000Z,16.32
2022-10-09T17:33:10.498Z,16.25
2022-10-09T17:35:40.860Z,16.13
2022-10-09T17:38:08.998Z,16.04
2022-10-09T17:40:39.698Z,16.13
2022-10-09T17:43:07.160Z,16.07
2022-10-09T17:45:40.783Z,15.95
2022-10-09T17:48:08.155Z,16.04
2022-10-09T17:50:35.779Z,16.20
2022-10-09T17:53:02.914Z,16.13
2022-10-09T17:55:29.753Z,16.19
2022-10-09T17:57:56.811Z,16.17
2022-10-09T18:00:23.901Z,16.13
2022-10-09T18:02:50.429Z,16.15
2022-10-09T18:05:16.986Z,16.11
2022-10-09T18:07:43.525Z,16.15
2022-10-09T18:10:10.100Z,16.09
2022-10-09T18:12:36.667Z,16.10
2022-10-09T18:15:03.740Z,16.06
2022-10-09T18:17:34.796Z,15.92
2022-10-09T18:20:04.379Z,15.90
2022-10-09T18:22:31.142Z,15.89
2022-10-09T18:24:58.584Z,16.11
2022-10-09T18:27:25.728Z,15.97
2022-10-09T18:29:52.354Z,15.97
2022-10-09T18:32:18.930Z,15.96
2022-10-09T18:34:46.704Z,16.00
2022-10-09T18:37:13.510Z,16.00
2022-10-09T18:39:40.066Z,15.82
2022-10-09T18:42:06.592Z,15.88
2022-10-09T18:44:40.003Z,15.84
2022-10-09T18:47:11.769Z,15.78
2022-10-09T18:49:42.413Z,15.64
2022-10-09T18:52:10.472Z,15.81
2022-10-09T18:54:38.612Z,15.80
2022-10-09T18:57:05.430Z,15.80
2022-10-09T18:59:32.606Z,15.80
2022-10-09T19:01:59.127Z,15.91
2022-10-09T19:04:25.654Z,15.92
2022-10-09T19:06:54.255Z,15.95
2022-10-09T19:09:20.930Z,15.91
2022-10-09T19:11:47.455Z,15.83
2022-10-09T19:14:15.725Z,15.79
2022-10-09T19:16:42.291Z,15.85
2022-10-09T19:19:08.865Z,15.80
2022-10-09T19:21:36.333Z,15.85
2022-10-09T19:24:06.073Z,15.82
2022-10-09T19:26:33.089Z,15.74
2022-10-09T19:29:00.144Z,15.89
2022-10-09T19:31:26.922Z,15.84
2022-10-09T19:33:53.443Z,15.89
2022-10-09T19:36:20.005Z,15.76
2022-10-09T19:38:46.801Z,15.77
2022-10-09T19:41:15.294Z,15.70
2022-10-09T19:43:42.207Z,15.48
2022-10-09T19:46:14.479Z,15.60
2022-10-09T19:48:41.205Z,15.71
2022-10-09T19:51:10.395Z,15.81
2022-10-09T19:53:36.966Z,15.72
2022-10-09T19:56:19.403Z,15.77
2022-10-09T19:58:48.403Z,15.73
2022-10-09T20:01:17.444Z,15.69
2022-10-09T20:03:44.991Z,15.71
2022-10-09T20:06:12.217Z,15.70
2022-10-09T20:08:40.534Z,15.77
2022-10-09T20:11:07.777Z,15.66
2022-10-09T20:13:36.674Z,15.51
2022-10-09T20:16:05.803Z,15.58
2022-10-09T20:18:33.117Z,15.63
2022-10-09T20:21:00.148Z,15.66
2022-10-09T20:23:26.769Z,15.45
2022-10-09T20:26:00.936Z,15.54
2022-10-09T20:28:30.453Z,15.66
2022-10-09T20:31:06.228Z,15.67
2022-10-09T20:33:34.279Z,15.62
2022-10-09T20:36:01.066Z,15.57
2022-10-09T20:38:27.843Z,15.62
2022-10-09T20:40:54.594Z,15.54
2022-10-09T20:43:21.115Z,15.49
2022-10-09T20:45:47.625Z,15.45
2022-10-09T20:48:14.247Z,15.48
2022-10-09T20:50:41.830Z,15.50
2022-10-09T20:53:09.993Z,15.49
2022-10-09T20:55:36.607Z,15.49
2022-10-09T20:58:04.540Z,15.54
2022-10-09T21:00:31.090Z,15.48
2022-10-09T21:02:57.644Z,15.46
2022-10-09T21:05:24.172Z,15.48
2022-10-09T21:07:50.964Z,15.49
2022-10-09T21:10:17.535Z,15.40
2022-10-09T21:12:44.147Z,15.39
2022-10-09T21:15:10.794Z,15.37
2022-10-09T21:17:37.307Z,15.36
2022-10-09T21:20:04.268Z,15.22
2022-10-09T21:22:31.813Z,15.17
2022-10-09T21:24:58.386Z,15.33
2022-10-09T21:27:24.983Z,15.41
2022-10-09T21:29:51.536Z,15.46
2022-10-09T21:32:18.178Z,15.35
2022-10-09T21:34:45.307Z,15.22
2022-10-09T21:37:21.417Z,15.30
2022-10-09T21:39:48.851Z,15.19
2022-10-09T21:42:15.389Z,15.33
2022-10-09T21:44:41.960Z,15.31
2022-10-09T21:47:16.377Z,15.26
2022-10-09T21:49:42.945Z,15.30
2022-10-09T21:52:10.209Z,15.12
2022-10-09T21:54:36.945Z,14.97
2022-10-09T21:57:03.590Z,14.86
2022-10-09T21:59:30.205Z,14.73
2022-10-09T22:01:56.879Z,14.74
2022-10-09T22:04:23.515Z,14.87
2022-10-09T22:06:50.143Z,14.59
2022-10-09T22:09:16.714Z,14.54
2022-10-09T22:11:44.583Z,14.76
2022-10-09T22:14:11.976Z,14.32
2022-10-09T22:16:38.518Z,14.19
2022-10-09T22:19:05.185Z,14.19
2022-10-09T22:21:32.043Z,14.23
2022-10-09T22:24:00.394Z,14.27
2022-10-09T22:26:27.121Z,14.07
2022-10-09T22:28:53.676Z,13.98
2022-10-09T22:31:23.488Z,14.10
2022-10-09T22:33:55.495Z,14.21
2022-10-09T22:36:24.334Z,14.41
2022-10-09T22:38:54.333Z,14.59
2022-10-09T22:41:22.491Z,14.67
2022-10-09T22:43:51.690Z,14.25
2022-10-09T22:46:21.447Z,14.27
2022-10-09T22:48:48.063Z,14.61
2022-10-09T22:51:16.855Z,14.67
2022-10-09T22:53:44.749Z,14.30
2022-10-09T22:56:15.538Z,14.72
2022-10-09T22:58:42.783Z,14.71
2022-10-09T23:01:15.578Z,14.20
2022-10-09T23:03:42.178Z,13.88
2022-10-09T23:06:16.667Z,13.73
2022-10-09T23:08:46.313Z,13.75
2022-10-09T23:11:14.021Z,13.79
2022-10-09T23:13:41.061Z,13.78
2022-10-09T23:16:10.210Z,13.93
2022-10-09T23:18:37.231Z,13.98
2022-10-09T23:21:10.580Z,14.02
2022-10-09T23:23:37.170Z,14.19
2022-10-09T23:26:08.509Z,13.84
2022-10-09T23:28:35.824Z,14.01
2022-10-09T23:31:15.259Z,13.97
2022-10-09T23:33:43.717Z,14.35
2022-10-09T23:36:13.825Z,14.03
2022-10-09T23:38:41.091Z,13.88
2022-10-09T23:41:11.336Z,13.58
2022-10-09T23:43:39.585Z,13.57
2022-10-09T23:46:10.058Z,13.59
2022-10-09T23:48:36.705Z,13.76
2022-10-09T23:51:05.098Z,13.86
2022-10-09T23:53:32.359Z,13.93
2022-10-09T23:55:59.029Z,14.09
2022-10-09T23:58:25.639Z,13.86
